createdAt,value
2022-12-17T00:01:54.652Z,-8.80
2022-12-17T00:04:39.970Z,-8.89
2022-12-17T00:07:25.386Z,-8.93
2022-12-17T00:10:27.574Z,-8.99
2022-12-17T00:13:12.944Z,-8.97
2022-12-17T00:16:12.945Z,-9.02
2022-12-17T00:18:59.612Z,-9.13
2022-12-17T00:21:44.838Z,-9.04
2022-12-17T00:24:29.870Z,-9.04
2022-12-17T00:27:14.903Z,-9.05
2022-12-17T00:30:00.051Z,-9.05
2022-12-17T00:32:45.284Z,-9.08
2022-12-17T00:35:31.994Z,-9.17
2022-12-17T00:38:17.100Z,-9.23
2022-12-17T00:41:02.202Z,-9.20
2022-12-17T00:43:47.450Z,-9.24
2022-12-17T00:46:32.803Z,-9.23
2022-12-17T00:49:18.234Z,-9.22
2022-12-17T00:52:05.186Z,-9.16
2022-12-17T00:54:50.219Z,-9.19
2022-12-17T00:57:35.570Z,-9.25
2022-12-17T01:00:20.933Z,-9.26
2022-12-17T01:03:07.563Z,-9.29
2022-12-17T01:05:52.651Z,-9.29
2022-12-17T01:08:40.121Z,-9.38
2022-12-17T01:11:28.137Z,-9.45
2022-12-17T01:14:13.515Z,-9.45
2022-12-17T01:16:58.832Z,-9.48
2022-12-17T01:19:44.317Z,-9.50
2022-12-17T01:22:29.767Z,-9.51
2022-12-17T01:25:16.421Z,-9.56
2022-12-17T01:28:01.784Z,-9.64
2022-12-17T01:30:46.991Z,-9.65
2022-12-17T01:33:32.412Z,-9.64
2022-12-17T01:36:17.691Z,-9.52
2022-12-17T01:39:03.582Z,-9.43
2022-12-17T01:41:50.282Z,-9.52
2022-12-17T01:45:04.613Z,-9.57
2022-12-17T01:47:53.176Z,-9.63
2022-12-17T01:50:44.072Z,-9.62
2022-12-17T01:53:30.383Z,-9.54
2022-12-17T01:56:16.281Z,-8.74
2022-12-17T01:59:03.044Z,-8.97
2022-12-17T02:01:48.561Z,-9.14
2022-12-17T02:04:34.425Z,-9.33
2022-12-17T02:07:37.630Z,-9.44
2022-12-17T02:10:34.818Z,-9.62
2022-12-17T02:13:28.785Z,-9.70
2022-12-17T02:16:17.907Z,-9.69
2022-12-17T02:19:25.372Z,-9.71
2022-12-17T02:22:16.890Z,-9.79
2022-12-17T02:25:11.911Z,-9.83
2022-12-17T02:28:02.471Z,-9.92
2022-12-17T02:30:49.570Z,-9.88
2022-12-17T02:33:36.353Z,-9.90
2022-12-17T02:36:24.767Z,-9.99
2022-12-17T02:39:12.309Z,-9.97
2022-12-17T02:42:01.239Z,-9.99
2022-12-17T02:44:49.412Z,-10.04
2022-12-17T02:47:41.809Z,-10.09
2022-12-17T02:50:28.645Z,-10.08
2022-12-17T02:53:17.150Z,-10.10
2022-12-17T02:56:02.571Z,-10.11
2022-12-17T02:58:47.982Z,-10.13
2022-12-17T03:01:35.157Z,-10.21
2022-12-17T03:04:20.552Z,-10.21
2022-12-17T03:07:06.081Z,-10.19
2022-12-17T03:09:51.487Z,-10.23
2022-12-17T03:12:36.812Z,-10.30
2022-12-17T03:15:27.480Z,-10.28
2022-12-17T03:18:14.129Z,-10.28
2022-12-17T03:20:59.376Z,-10.35
2022-12-17T03:23:44.598Z,-10.35
2022-12-17T03:26:30.467Z,-10.36
2022-12-17T03:29:15.638Z,-10.36
2022-12-17T03:32:01.012Z,-10.38
2022-12-17T03:34:47.651Z,-10.38
2022-12-17T03:37:32.716Z,-10.41
2022-12-17T03:40:18.116Z,-10.42
2022-12-17T03:43:03.530Z,-10.47
2022-12-17T03:45:48.957Z,-10.55
2022-12-17T03:48:34.311Z,-10.59
2022-12-17T03:51:21.523Z,-10.61
2022-12-17T03:54:07.378Z,-10.62
2022-12-17T03:56:52.654Z,-10.61
2022-12-17T03:59:37.849Z,-10.60
2022-12-17T04:02:23.209Z,-10.58
2022-12-17T04:05:08.413Z,-10.70
2022-12-17T04:07:55.072Z,-10.68
2022-12-17T04:10:40.323Z,-10.66
2022-12-17T04:13:25.812Z,-10.69
2022-12-17T04:16:11.113Z,-10.70
2022-12-17T04:18:56.428Z,-10.73
2022-12-17T04:21:41.803Z,-10.77
2022-12-17T04:24:28.443Z,-10.73
2022-12-17T04:27:13.979Z,-10.71
2022-12-17T04:29:59.212Z,-10.80
2022-12-17T04:32:44.499Z,-10.90
2022-12-17T04:35:29.769Z,-10.89
2022-12-17T04:38:15.001Z,-10.81
2022-12-17T04:41:01.524Z,-10.86
2022-12-17T04:43:46.753Z,-10.82
2022-12-17T04:46:32.267Z,-10.86
2022-12-17T04:49:17.606Z,-10.83
2022-12-17T04:52:03.047Z,-10.86
2022-12-17T04:54:48.413Z,-10.92
2022-12-17T04:57:34.979Z,-10.97
2022-12-17T05:00:20.324Z,-11.01
2022-12-17T05:03:05.761Z,-10.99
2022-12-17T05:05:50.939Z,-11.01
2022-12-17T05:08:41.247Z,-11.01
2022-12-17T05:11:26.659Z,-10.94
2022-12-17T05:14:13.351Z,-10.99
2022-12-17T05:16:58.564Z,-11.00
2022-12-17T05:19:43.867Z,-11.01
2022-12-17T05:22:29.248Z,-11.05
2022-12-17T05:25:14.721Z,-11.08
2022-12-17T05:28:00.224Z,-11.13
2022-12-17T05:30:46.530Z,-11.23
2022-12-17T05:33:31.817Z,-11.15
2022-12-17T05:36:18.658Z,-11.22
2022-12-17T05:39:03.980Z,-11.21
2022-12-17T05:41:49.120Z,-11.26
2022-12-17T05:44:34.562Z,-11.24
2022-12-17T05:47:21.263Z,-11.33
2022-12-17T05:50:06.686Z,-11.33
2022-12-17T05:52:52.088Z,-11.35
2022-12-17T05:55:37.499Z,-11.39
2022-12-17T05:58:23.390Z,-11.38
2022-12-17T06:01:08.709Z,-11.40
2022-12-17T06:03:55.603Z,-11.41
2022-12-17T06:06:40.886Z,-11.38
2022-12-17T06:09:26.287Z,-11.42
2022-12-17T06:12:11.503Z,-11.36
2022-12-17T06:14:56.690Z,-11.33
2022-12-17T06:17:42.056Z,-11.36
2022-12-17T06:20:29.546Z,-11.37
2022-12-17T06:23:18.304Z,-11.37
2022-12-17T06:26:03.746Z,-11.30
2022-12-17T06:28:49.193Z,-11.25
2022-12-17T06:31:34.652Z,-11.11
2022-12-17T06:34:19.758Z,-11.03
2022-12-17T06:37:06.185Z,-10.99
2022-12-17T06:39:51.584Z,-10.98
2022-12-17T06:42:37.092Z,-10.90
2022-12-17T06:45:22.798Z,-10.81
2022-12-17T06:48:08.099Z,-10.77
2022-12-17T06:50:53.378Z,-10.76
2022-12-17T06:53:40.016Z,-10.73
2022-12-17T06:56:25.949Z,-10.68
2022-12-17T06:59:11.310Z,-10.64
2022-12-17T07:01:56.409Z,-10.57
2022-12-17T07:04:41.559Z,-10.45
2022-12-17T07:07:27.040Z,-10.52
2022-12-17T07:10:14.541Z,-10.51
2022-12-17T07:12:59.965Z,-10.52
2022-12-17T07:15:45.460Z,-10.60
2022-12-17T07:18:30.828Z,-10.67
2022-12-17T07:21:16.180Z,-10.69
2022-12-17T07:24:01.619Z,-10.67
2022-12-17T07:26:48.191Z,-10.72
2022-12-17T07:29:33.574Z,-10.69
2022-12-17T07:32:18.761Z,-10.79
2022-12-17T07:35:04.060Z,-10.82
2022-12-17T07:37:49.377Z,-10.85
2022-12-17T07:40:34.632Z,-10.81
2022-12-17T07:43:28.792Z,-10.85
2022-12-17T07:46:14.139Z,-10.91
2022-12-17T07:48:59.446Z,-10.88
2022-12-17T07:51:44.780Z,-10.80
2022-12-17T07:54:30.337Z,-10.83
2022-12-17T07:57:15.615Z,-10.85
2022-12-17T08:00:02.380Z,-10.79
2022-12-17T08:02:51.365Z,-10.83
2022-12-17T08:05:36.650Z,-10.69
2022-12-17T08:08:26.498Z,-10.55
2022-12-17T08:11:11.977Z,-10.52
2022-12-17T08:13:57.329Z,-10.50
2022-12-17T08:16:44.325Z,-10.42
2022-12-17T08:19:29.809Z,-10.32
2022-12-17T08:22:14.767Z,-10.17
2022-12-17T08:25:00.140Z,-10.14
2022-12-17T08:27:45.422Z,-10.01
2022-12-17T08:30:31.047Z,-9.90
2022-12-17T08:33:22.490Z,-9.89
2022-12-17T08:36:11.757Z,-9.82
2022-12-17T08:38:57.032Z,-9.69
2022-12-17T08:41:42.373Z,-9.58
2022-12-17T08:44:27.758Z,-9.49
2022-12-17T08:47:13.048Z,-9.36
2022-12-17T08:49:59.743Z,-9.24
2022-12-17T08:52:45.040Z,-9.08
2022-12-17T08:55:30.506Z,-9.02
2022-12-17T08:58:17.510Z,-8.88
2022-12-17T09:01:03.868Z,-8.76
2022-12-17T09:03:49.175Z,-8.70
2022-12-17T09:06:39.154Z,-8.58
2022-12-17T09:09:24.809Z,-8.55
2022-12-17T09:12:10.060Z,-8.34
2022-12-17T09:14:55.736Z,-8.22
2022-12-17T09:17:40.786Z,-8.05
2022-12-17T09:20:29.386Z,-7.96
2022-12-17T09:23:16.580Z,-7.85
2022-12-17T09:26:02.544Z,-7.79
2022-12-17T09:29:01.626Z,-7.56
2022-12-17T09:31:46.928Z,-7.71
2022-12-17T09:34:32.410Z,-7.67
2022-12-17T09:37:18.125Z,-7.40
2022-12-17T09:40:04.663Z,-7.80
2022-12-17T09:42:59.845Z,-7.70
2022-12-17T09:45:51.302Z,-7.68
2022-12-17T09:48:44.733Z,-7.41
2022-12-17T09:51:40.261Z,-6.98
2022-12-17T09:54:34.348Z,-6.80
2022-12-17T09:57:21.542Z,-7.08
2022-12-17T10:00:06.963Z,-7.18
2022-12-17T10:02:52.449Z,-7.00
2022-12-17T10:05:41.953Z,-7.05
2022-12-17T10:08:32.754Z,-7.09
2022-12-17T10:11:34.187Z,-7.12
2022-12-17T10:14:33.836Z,-7.22
2022-12-17T10:17:29.770Z,-7.34
2022-12-17T10:20:15.033Z,-7.21
2022-12-17T10:23:02.477Z,-7.07
2022-12-17T10:25:47.926Z,-6.75
2022-12-17T10:28:35.820Z,-6.65
2022-12-17T10:31:26.912Z,-6.35
2022-12-17T10:34:15.214Z,-6.22
2022-12-17T10:37:04.702Z,-6.25
2022-12-17T10:39:50.673Z,-6.13
2022-12-17T10:42:40.430Z,-5.87
2022-12-17T10:45:43.575Z,-5.59
2022-12-17T10:48:55.984Z,-5.49
2022-12-17T10:51:46.362Z,-5.47
2022-12-17T10:54:44.007Z,-5.69
2022-12-17T10:57:42.924Z,-5.33
2022-12-17T11:00:50.872Z,-5.44
2022-12-17T11:03:50.802Z,-5.04
2022-12-17T11:06:43.277Z,-4.81
2022-12-17T11:09:53.918Z,-5.08
2022-12-17T11:12:44.441Z,-5.06
2022-12-17T11:15:37.944Z,-4.81
2022-12-17T11:18:25.386Z,-4.73
2022-12-17T11:21:16.785Z,-4.43
2022-12-17T11:24:07.253Z,-4.49
2022-12-17T11:26:56.478Z,-4.58
2022-12-17T11:29:41.872Z,-4.41
2022-12-17T11:32:44.098Z,-4.67
2022-12-17T11:35:37.800Z,-4.85
2022-12-17T11:38:33.592Z,-4.74
2022-12-17T11:41:27.889Z,-5.07
2022-12-17T11:44:20.349Z,-5.15
2022-12-17T11:47:14.201Z,-4.90
2022-12-17T11:50:06.615Z,-4.94
2022-12-17T11:53:01.522Z,-4.81
2022-12-17T11:55:55.137Z,-4.75
2022-12-17T11:58:49.929Z,-4.72
2022-12-17T12:01:43.979Z,-4.89
2022-12-17T12:04:43.839Z,-4.75
2022-12-17T12:07:36.321Z,-4.21
2022-12-17T12:10:25.150Z,-4.39
2022-12-17T12:13:22.826Z,-4.59
2022-12-17T12:16:23.733Z,-4.71
2022-12-17T12:19:19.533Z,-4.60
2022-12-17T12:22:14.065Z,-4.71
2022-12-17T12:25:15.605Z,-4.73
2022-12-17T12:28:12.213Z,-4.71
2022-12-17T12:31:10.336Z,-4.74
2022-12-17T12:34:09.474Z,-4.69
2022-12-17T12:36:56.595Z,-4.73
2022-12-17T12:39:49.917Z,-4.70
2022-12-17T12:42:42.499Z,-4.69
2022-12-17T12:45:48.131Z,-4.66
2022-12-17T12:48:46.722Z,-4.75
2022-12-17T12:51:37.829Z,-4.70
2022-12-17T12:54:41.775Z,-4.75
2022-12-17T12:57:49.189Z,-4.76
2022-12-17T13:00:47.878Z,-4.78
2022-12-17T13:03:42.493Z,-4.80
2022-12-17T13:06:09.356Z,-4.81
2022-12-17T13:08:36.741Z,-4.77
2022-12-17T13:11:27.896Z,-4.71
2022-12-17T13:14:00.305Z,-4.46
2022-12-17T13:16:41.580Z,-4.58
2022-12-17T13:19:31.564Z,-4.64
2022-12-17T13:22:10.203Z,-4.68
2022-12-17T13:24:37.296Z,-4.78
2022-12-17T13:27:05.035Z,-4.78
2022-12-17T13:29:37.146Z,-4.81
2022-12-17T13:32:15.784Z,-4.83
2022-12-17T13:35:10.134Z,-4.77
2022-12-17T13:37:45.241Z,-4.80
2022-12-17T13:40:26.924Z,-4.83
2022-12-17T13:42:54.313Z,-4.81
2022-12-17T13:45:24.541Z,-4.81
2022-12-17T13:47:55.785Z,-4.84
2022-12-17T13:50:35.284Z,-4.87
2022-12-17T13:53:10.593Z,-4.91
2022-12-17T13:55:38.341Z,-4.63
2022-12-17T13:58:05.053Z,-4.46
2022-12-17T14:00:32.533Z,-4.61
2022-12-17T14:03:10.446Z,-4.76
2022-12-17T14:05:43.450Z,-4.93
2022-12-17T14:08:16.541Z,-5.07
2022-12-17T14:10:49.785Z,-5.08
2022-12-17T14:13:16.868Z,-5.16
2022-12-17T14:15:47.379Z,-5.30
2022-12-17T14:18:18.839Z,-5.46
2022-12-17T14:20:50.672Z,-5.60
2022-12-17T14:23:27.981Z,-5.68
2022-12-17T14:25:56.441Z,-5.75
2022-12-17T14:28:25.375Z,-5.86
2022-12-17T14:31:26.114Z,-5.91
2022-12-17T14:34:01.238Z,-6.00
2022-12-17T14:36:30.541Z,-6.07
2022-12-17T14:38:59.827Z,-6.02
2022-12-17T14:41:46.120Z,-6.19
2022-12-17T14:44:21.685Z,-6.28
2022-12-17T14:46:49.046Z,-6.28
2022-12-17T14:49:21.649Z,-6.40
2022-12-17T14:51:50.116Z,-6.50
2022-12-17T14:54:29.304Z,-6.56
2022-12-17T14:56:57.805Z,-6.59
2022-12-17T14:59:32.496Z,-6.62
2022-12-17T15:02:03.067Z,-6.67
2022-12-17T15:04:31.016Z,-6.72
2022-12-17T15:06:59.600Z,-6.82
2022-12-17T15:09:26.286Z,-6.88
2022-12-17T15:11:52.994Z,-6.96
2022-12-17T15:14:19.689Z,-6.99
2022-12-17T15:16:46.432Z,-7.03
2022-12-17T15:19:17.967Z,-7.03
2022-12-17T15:21:44.953Z,-7.15
2022-12-17T15:24:17.534Z,-7.16
2022-12-17T15:26:44.256Z,-7.16
2022-12-17T15:29:11.105Z,-7.22
2022-12-17T15:31:38.048Z,-7.33
2022-12-17T15:34:05.299Z,-7.43
2022-12-17T15:36:47.052Z,-7.51
2022-12-17T15:39:15.218Z,-7.59
2022-12-17T15:42:01.090Z,-7.63
2022-12-17T15:44:27.890Z,-7.75
2022-12-17T15:46:54.544Z,-7.84
2022-12-17T15:49:21.365Z,-7.92
2022-12-17T15:51:47.977Z,-7.97
2022-12-17T15:54:16.152Z,-8.06
2022-12-17T15:56:42.929Z,-8.19
2022-12-17T15:59:09.669Z,-8.09
2022-12-17T16:01:36.587Z,-8.11
2022-12-17T16:04:03.586Z,-8.10
2022-12-17T16:06:30.452Z,-8.18
2022-12-17T16:08:58.235Z,-8.26
2022-12-17T16:11:26.303Z,-8.29
2022-12-17T16:13:55.094Z,-8.33
2022-12-17T16:16:23.301Z,-5.95
2022-12-17T16:18:50.346Z,-5.25
2022-12-17T16:21:17.125Z,-6.33
2022-12-17T16:23:43.763Z,-7.04
2022-12-17T16:26:11.745Z,-7.45
2022-12-17T16:28:44.189Z,-7.74
2022-12-17T16:31:13.667Z,-8.09
2022-12-17T16:33:43.225Z,-8.22
2022-12-17T16:36:13.416Z,-8.35
2022-12-17T16:38:43.366Z,-8.54
2022-12-17T16:41:09.958Z,-8.68
2022-12-17T16:43:36.729Z,-8.74
2022-12-17T16:46:10.617Z,-8.82
2022-12-17T16:48:39.267Z,-8.84
2022-12-17T16:51:18.249Z,-8.90
2022-12-17T16:53:47.978Z,-8.96
2022-12-17T16:56:18.928Z,-8.97
2022-12-17T16:58:46.216Z,-8.98
2022-12-17T17:01:18.668Z,-9.04
2022-12-17T17:03:45.462Z,-9.16
2022-12-17T17:06:12.305Z,-9.21
2022-12-17T17:08:40.187Z,-9.24
2022-12-17T17:11:13.292Z,-9.25
2022-12-17T17:13:40.630Z,-9.29
2022-12-17T17:16:09.147Z,-9.31
2022-12-17T17:18:38.434Z,-9.35
2022-12-17T17:21:25.389Z,-6.89
2022-12-17T17:23:57.354Z,-6.22
2022-12-17T17:26:24.261Z,-7.28
2022-12-17T17:28:51.856Z,-8.04
2022-12-17T17:31:18.996Z,-8.57
2022-12-17T17:33:50.696Z,-8.92
2022-12-17T17:36:19.580Z,-9.14
2022-12-17T17:38:47.446Z,-9.38
2022-12-17T17:41:16.141Z,-9.47
2022-12-17T17:43:43.245Z,-9.52
2022-12-17T17:46:12.692Z,-9.56
2022-12-17T17:48:40.343Z,-9.65
2022-12-17T17:51:11.878Z,-9.77
2022-12-17T17:53:38.734Z,-9.80
2022-12-17T17:56:08.004Z,-9.75
2022-12-17T17:58:35.124Z,-9.84
2022-12-17T18:01:08.065Z,-9.90
2022-12-17T18:03:35.002Z,-10.00
2022-12-17T18:06:02.583Z,-10.10
2022-12-17T18:08:31.430Z,-10.07
2022-12-17T18:10:59.690Z,-10.21
2022-12-17T18:13:45.133Z,-10.23
2022-12-17T18:16:12.794Z,-10.24
2022-12-17T18:18:40.072Z,-10.20
2022-12-17T18:21:08.775Z,-10.11
2022-12-17T18:23:37.607Z,-10.25
2022-12-17T18:26:06.626Z,-10.18
2022-12-17T18:28:33.390Z,-10.28
2022-12-17T18:31:05.994Z,-10.30
2022-12-17T18:33:32.942Z,-10.33
2022-12-17T18:35:59.699Z,-10.25
2022-12-17T18:38:26.420Z,-10.27
2022-12-17T18:40:54.418Z,-10.31
2022-12-17T18:43:23.859Z,-10.35
2022-12-17T18:45:51.037Z,-10.40
2022-12-17T18:48:18.318Z,-10.49
2022-12-17T18:50:45.212Z,-10.44
2022-12-17T18:53:12.524Z,-10.42
2022-12-17T18:55:40.763Z,-10.42
2022-12-17T18:58:10.879Z,-10.44
2022-12-17T19:00:38.923Z,-10.58
2022-12-17T19:03:05.950Z,-10.55
2022-12-17T19:05:32.740Z,-10.52
2022-12-17T19:07:59.376Z,-10.61
2022-12-17T19:10:26.194Z,-10.68
2022-12-17T19:12:52.868Z,-10.69
2022-12-17T19:15:21.030Z,-10.60
2022-12-17T19:17:50.815Z,-10.62
2022-12-17T19:20:18.703Z,-10.72
2022-12-17T19:22:45.375Z,-10.71
2022-12-17T19:25:12.419Z,-10.74
2022-12-17T19:27:39.122Z,-10.69
2022-12-17T19:30:07.309Z,-10.78
2022-12-17T19:32:35.564Z,-10.75
2022-12-17T19:35:02.595Z,-10.74
2022-12-17T19:37:29.291Z,-10.89
2022-12-17T19:39:56.107Z,-10.83
2022-12-17T19:42:25.583Z,-10.75
2022-12-17T19:44:53.194Z,-10.86
2022-12-17T19:47:20.112Z,-10.96
2022-12-17T19:49:48.323Z,-11.00
2022-12-17T19:52:15.080Z,-11.01
2022-12-17T19:54:41.851Z,-10.96
2022-12-17T19:57:08.551Z,-11.01
2022-12-17T19:59:35.356Z,-11.11
2022-12-17T20:02:03.756Z,-11.06
2022-12-17T20:04:31.063Z,-11.07
2022-12-17T20:07:00.736Z,-11.16
2022-12-17T20:09:27.505Z,-11.19
2022-12-17T20:11:54.254Z,-11.19
2022-12-17T20:14:23.707Z,-11.24
2022-12-17T20:16:52.678Z,-11.20
2022-12-17T20:19:21.257Z,-11.24
2022-12-17T20:21:48.597Z,-11.26
2022-12-17T20:24:17.802Z,-11.22
2022-12-17T20:26:46.706Z,-11.23
2022-12-17T20:29:13.633Z,-11.30
2022-12-17T20:31:46.629Z,-11.37
2022-12-17T20:34:18.299Z,-11.34
2022-12-17T20:36:45.504Z,-11.29
2022-12-17T20:39:14.457Z,-11.24
2022-12-17T20:41:43.997Z,-11.31
2022-12-17T20:44:13.180Z,-11.34
2022-12-17T20:46:41.323Z,-11.32
2022-12-17T20:49:08.909Z,-11.38
2022-12-17T20:51:35.675Z,-11.30
2022-12-17T20:54:04.102Z,-11.28
2022-12-17T20:56:33.635Z,-11.30
2022-12-17T20:59:03.718Z,-11.41
2022-12-17T21:01:32.183Z,-11.39
2022-12-17T21:03:59.684Z,-11.46
2022-12-17T21:06:28.592Z,-11.40
2022-12-17T21:08:56.246Z,-11.42
2022-12-17T21:11:24.984Z,-11.38
2022-12-17T21:13:52.037Z,-11.42
2022-12-17T21:16:22.547Z,-11.49
2022-12-17T21:18:52.209Z,-11.48
2022-12-17T21:21:23.260Z,-11.49
2022-12-17T21:23:50.759Z,-11.52
2022-12-17T21:26:19.419Z,-11.60
2022-12-17T21:28:47.699Z,-11.65
2022-12-17T21:31:16.985Z,-11.59
2022-12-17T21:33:47.612Z,-11.61
2022-12-17T21:36:16.123Z,-11.61
2022-12-17T21:38:43.190Z,-11.53
2022-12-17T21:41:11.789Z,-11.50
2022-12-17T21:43:40.099Z,-11.54
2022-12-17T21:46:08.942Z,-11.50
2022-12-17T21:48:42.011Z,-11.55
2022-12-17T21:51:12.821Z,-11.53
2022-12-17T21:53:42.314Z,-11.54
2022-12-17T21:56:11.401Z,-11.48
2022-12-17T21:58:38.731Z,-11.52
2022-12-17T22:01:14.365Z,-11.59
2022-12-17T22:03:46.808Z,-11.60
2022-12-17T22:06:17.643Z,-11.60
2022-12-17T22:08:45.088Z,-11.78
2022-12-17T22:11:14.012Z,-11.76
2022-12-17T22:14:07.829Z,-11.68
2022-12-17T22:16:39.462Z,-11.87
2022-12-17T22:19:10.573Z,-11.68
2022-12-17T22:21:39.983Z,-11.65
2022-12-17T22:24:07.431Z,-11.65
2022-12-17T22:26:34.587Z,-11.65
2022-12-17T22:29:01.638Z,-11.73
2022-12-17T22:31:46.759Z,-11.64
2022-12-17T22:35:25.689Z,-11.68
2022-12-17T22:40:17.862Z,-11.27
2022-12-17T22:42:33.015Z,-10.79
2022-12-17T22:42:54.377Z,-11.05
2022-12-17T22:45:41.785Z,-11.11
2022-12-17T22:48:10.316Z,-11.21
2022-12-17T22:50:38.652Z,-11.31
2022-12-17T22:53:13.938Z,-11.41
2022-12-17T22:55:41.122Z,-11.37
2022-12-17T22:58:08.317Z,-11.37
2022-12-17T23:00:36.150Z,-11.40
2022-12-17T23:03:03.690Z,-11.41
2022-12-17T23:05:30.680Z,-11.50
2022-12-17T23:07:58.156Z,-11.55
2022-12-17T23:10:27.030Z,-11.53
2022-12-17T23:12:55.032Z,-11.60
2022-12-17T23:15:23.558Z,-11.70
2022-12-17T23:17:51.422Z,-11.72
2022-12-17T23:20:18.436Z,-11.75
2022-12-17T23:22:45.047Z,-11.72
2022-12-17T23:25:12.627Z,-11.67
2022-12-17T23:27:40.769Z,-11.65
2022-12-17T23:30:08.705Z,-11.57
2022-12-17T23:32:35.913Z,-11.62
2022-12-17T23:35:02.643Z,-11.64
2022-12-17T23:37:29.318Z,-11.62
2022-12-17T23:39:55.897Z,-11.71
2022-12-17T23:42:22.626Z,-11.76
2022-12-17T23:44:50.787Z,-11.77
2022-12-17T23:47:17.393Z,-11.68
2022-12-17T23:49:44.137Z,-11.66
2022-12-17T23:52:10.783Z,-11.66
2022-12-17T23:54:37.538Z,-11.76
2022-12-17T23:57:04.361Z,-11.74
2022-12-17T23:59:31.078Z,-11.75
